createdAt,value
2019-04-24T00:01:21.051Z,18.21
2019-04-24T00:04:02.918Z,18.24
2019-04-24T00:06:20.258Z,18.29
2019-04-24T00:08:55.171Z,18.29
2019-04-24T00:11:38.017Z,18.30
2019-04-24T00:14:23.887Z,18.28
2019-04-24T00:16:59.198Z,18.23
2019-04-24T00:19:23.709Z,18.23
2019-04-24T00:21:57.797Z,18.21
2019-04-24T00:24:29.309Z,18.21
2019-04-24T00:32:02.365Z,18.14
2019-04-24T00:34:44.483Z,18.13
2019-04-24T00:37:10.039Z,18.10
2019-04-24T00:39:36.748Z,18.10
2019-04-24T00:44:35.494Z,17.86
2019-04-24T00:47:13.829Z,17.80
2019-04-24T00:49:36.829Z,17.79
2019-04-24T00:52:09.583Z,17.77
2019-04-24T01:02:20.252Z,17.59
2019-04-24T01:05:10.780Z,17.57
2019-04-24T01:07:35.716Z,17.55
2019-04-24T01:18:02.034Z,17.43
2019-04-24T01:23:03.026Z,17.37
2019-04-24T01:28:02.542Z,17.33
2019-04-24T01:36:05.503Z,17.34
2019-04-24T01:38:36.084Z,17.36
2019-04-24T01:41:14.753Z,17.31
2019-04-24T01:43:42.158Z,17.24
2019-04-24T01:46:21.578Z,17.22
2019-04-24T01:48:51.892Z,17.15
2019-04-24T01:51:23.441Z,17.14
2019-04-24T01:58:58.145Z,17.05
2019-04-24T02:04:24.854Z,17.09
2019-04-24T02:06:19.569Z,17.03
2019-04-24T02:08:59.752Z,17.04
2019-04-24T02:14:07.625Z,17.07
2019-04-24T02:19:02.359Z,17.11
2019-04-24T02:21:42.033Z,17.17
2019-04-24T02:24:13.470Z,17.18
2019-04-24T02:29:20.851Z,17.23
2019-04-24T02:31:48.671Z,17.24
2019-04-24T02:34:52.727Z,17.27
2019-04-24T02:37:02.429Z,17.27
2019-04-24T02:42:37.542Z,17.36
2019-04-24T02:45:03.621Z,17.37
2019-04-24T02:57:43.512Z,17.45
2019-04-24T03:05:30.105Z,17.44
2019-04-24T03:10:28.157Z,17.48
2019-04-24T03:13:14.118Z,17.51
2019-04-24T03:46:23.207Z,17.84
2019-04-24T03:51:53.772Z,17.90
2019-04-24T03:53:59.624Z,17.90
2019-04-24T03:56:28.804Z,17.93
2019-04-24T04:01:42.632Z,17.94
2019-04-24T04:04:12.831Z,17.91
2019-04-24T04:11:54.922Z,17.87
2019-04-24T04:14:11.976Z,17.90
2019-04-24T04:19:28.666Z,17.91
2019-04-24T04:24:27.633Z,17.91
2019-04-24T04:29:47.332Z,17.89
2019-04-24T04:32:44.441Z,17.85
2019-04-24T04:40:06.234Z,17.86
2019-04-24T04:42:31.495Z,17.84
2019-04-24T04:44:57.157Z,17.93
2019-04-24T04:50:20.891Z,18.05
2019-04-24T04:57:58.480Z,18.05
2019-04-24T05:00:35.484Z,18.20
2019-04-24T05:03:11.095Z,18.16
2019-04-24T05:08:36.831Z,18.21
2019-04-24T05:10:42.853Z,18.38
2019-04-24T05:13:10.103Z,18.43
2019-04-24T05:15:40.434Z,18.53
2019-04-24T05:18:19.997Z,18.58
2019-04-24T05:28:43.865Z,18.87
2019-04-24T05:31:25.863Z,18.87
2019-04-24T05:33:48.419Z,18.89
2019-04-24T05:36:35.766Z,19.07
2019-04-24T05:39:20.677Z,19.05
2019-04-24T05:41:57.519Z,19.05
2019-04-24T05:46:39.479Z,19.12
2019-04-24T05:49:18.656Z,19.17
2019-04-24T05:51:54.898Z,19.13
2019-04-24T05:54:28.485Z,19.20
2019-04-24T05:57:25.317Z,19.14
2019-04-24T06:02:34.992Z,19.19
2019-04-24T06:04:54.322Z,19.36
2019-04-24T06:08:19.006Z,19.66
2019-04-24T06:15:11.023Z,19.78
2019-04-24T06:17:55.982Z,19.76
2019-04-24T06:20:39.424Z,19.77
2019-04-24T06:22:52.206Z,19.94
2019-04-24T06:25:36.001Z,20.07
2019-04-24T06:32:47.603Z,20.19
2019-04-24T06:38:10.243Z,20.39
2019-04-24T06:43:23.073Z,20.60
2019-04-24T06:45:43.799Z,20.74
2019-04-24T06:48:21.476Z,20.78
2019-04-24T06:53:19.305Z,20.95
2019-04-24T06:56:11.511Z,20.98
2019-04-24T06:58:42.528Z,21.07
2019-04-24T07:01:17.389Z,21.36
2019-04-24T07:06:31.031Z,21.57
2019-04-24T07:19:38.318Z,21.00
2019-04-24T07:24:48.329Z,20.83
2019-04-24T07:27:16.543Z,20.71
2019-04-24T07:29:53.081Z,20.61
2019-04-24T07:32:23.797Z,20.69
2019-04-24T07:37:52.629Z,20.95
2019-04-24T07:40:08.297Z,20.95
2019-04-24T07:42:44.499Z,20.71
2019-04-24T07:47:44.625Z,20.27
2019-04-24T07:50:21.042Z,20.06
2019-04-24T07:55:34.139Z,19.78
2019-04-24T07:57:56.138Z,19.74
2019-04-24T08:03:08.694Z,20.01
2019-04-24T08:05:32.427Z,20.20
2019-04-24T08:08:06.794Z,20.42
2019-04-24T08:13:17.154Z,20.74
2019-04-24T08:18:25.361Z,21.02
2019-04-24T08:20:56.231Z,20.99
2019-04-24T08:31:33.712Z,21.06
2019-04-24T08:36:22.891Z,21.26
2019-04-24T08:39:25.039Z,21.36
2019-04-24T08:41:42.534Z,21.46
2019-04-24T08:44:05.088Z,21.69
2019-04-24T08:49:15.536Z,22.12
2019-04-24T08:56:59.272Z,22.07
2019-04-24T08:59:48.689Z,22.14
2019-04-24T09:02:16.422Z,22.34
2019-04-24T09:07:18.459Z,22.54
2019-04-24T09:10:16.417Z,22.80
2019-04-24T09:15:27.117Z,22.91
2019-04-24T09:17:59.954Z,22.83
2019-04-24T09:20:43.974Z,22.81
2019-04-24T09:28:05.245Z,22.67
2019-04-24T09:30:41.622Z,22.76
2019-04-24T09:33:16.914Z,22.87
2019-04-24T09:38:43.213Z,22.86
2019-04-24T09:46:22.425Z,22.96
2019-04-24T09:51:34.373Z,23.02
2019-04-24T09:54:05.528Z,23.09
2019-04-24T10:01:57.875Z,23.13
2019-04-24T10:07:21.179Z,23.25
2019-04-24T10:09:34.933Z,23.47
2019-04-24T10:12:17.894Z,23.51
2019-04-24T10:14:36.629Z,23.62
2019-04-24T10:19:59.859Z,23.72
2019-04-24T10:22:11.123Z,23.74
2019-04-24T10:24:51.777Z,23.74
2019-04-24T10:27:23.061Z,23.68
2019-04-24T10:30:00.775Z,23.62
2019-04-24T10:32:48.043Z,23.48
2019-04-24T10:35:19.957Z,23.47
2019-04-24T10:38:18.698Z,23.37
2019-04-24T10:40:30.367Z,23.34
2019-04-24T10:43:24.693Z,23.64
2019-04-24T10:46:03.642Z,23.94
2019-04-24T10:48:46.444Z,24.22
2019-04-24T10:53:46.109Z,24.67
2019-04-24T10:56:26.514Z,24.62
2019-04-24T10:58:51.519Z,24.71
2019-04-24T11:01:35.641Z,24.71
2019-04-24T11:04:16.839Z,24.75
2019-04-24T11:07:07.607Z,24.75
2019-04-24T11:09:55.123Z,24.70
2019-04-24T11:12:12.539Z,24.54
2019-04-24T11:17:23.062Z,24.61
2019-04-24T11:20:02.471Z,24.60
2019-04-24T11:22:39.425Z,24.70
2019-04-24T11:25:52.702Z,24.77
2019-04-24T11:28:22.979Z,24.82
2019-04-24T11:30:48.600Z,24.74
2019-04-24T11:36:02.578Z,24.67
2019-04-24T11:38:52.627Z,24.63
2019-04-24T11:41:09.809Z,24.61
2019-04-24T11:43:50.774Z,24.73
2019-04-24T11:46:48.630Z,24.73
2019-04-24T11:49:12.374Z,24.75
2019-04-24T11:51:34.351Z,24.75
2019-04-24T11:53:54.384Z,24.87
2019-04-24T11:56:48.037Z,24.89
2019-04-24T11:58:49.183Z,24.87
2019-04-24T12:09:39.949Z,25.03
2019-04-24T12:11:59.823Z,25.00
2019-04-24T12:14:44.751Z,25.08
2019-04-24T12:17:21.830Z,25.08
2019-04-24T12:22:36.304Z,25.23
2019-04-24T12:25:10.834Z,25.35
2019-04-24T12:27:42.549Z,25.30
2019-04-24T12:30:07.433Z,25.26
2019-04-24T12:32:50.313Z,25.29
2019-04-24T12:48:17.372Z,25.68
2019-04-24T12:50:52.473Z,25.76
2019-04-24T12:53:38.382Z,25.74
2019-04-24T13:01:46.341Z,26.23
2019-04-24T13:04:34.923Z,26.34
2019-04-24T13:06:38.578Z,26.49
2019-04-24T13:09:21.773Z,26.58
2019-04-24T13:11:59.264Z,26.69
2019-04-24T13:14:38.670Z,26.94
2019-04-24T13:17:17.600Z,26.90
2019-04-24T13:21:45.442Z,27.11
2019-04-24T13:24:32.177Z,27.28
2019-04-24T13:27:17.006Z,27.33
2019-04-24T13:30:08.191Z,27.43
2019-04-24T13:32:36.945Z,27.55
2019-04-24T13:35:22.443Z,27.73
2019-04-24T13:38:10.031Z,27.85
2019-04-24T13:40:01.524Z,28.07
2019-04-24T13:42:52.705Z,28.37
2019-04-24T13:47:59.399Z,28.86
2019-04-24T13:50:27.572Z,29.06
2019-04-24T13:55:27.515Z,29.32
2019-04-24T14:05:38.549Z,29.00
2019-04-24T14:08:20.814Z,28.97
2019-04-24T14:11:02.409Z,29.12
2019-04-24T14:15:50.554Z,29.31
2019-04-24T14:20:56.488Z,29.50
2019-04-24T14:23:35.329Z,29.44
2019-04-24T14:28:46.792Z,29.48
2019-04-24T14:41:16.890Z,30.01
2019-04-24T14:44:14.157Z,29.47
2019-04-24T14:46:38.134Z,28.99
2019-04-24T14:49:16.107Z,28.43
2019-04-24T14:51:34.687Z,28.48
2019-04-24T14:56:35.728Z,28.98
2019-04-24T15:01:47.446Z,29.58
2019-04-24T15:06:51.076Z,29.81
2019-04-24T15:09:16.232Z,29.42
2019-04-24T15:12:08.879Z,29.36
2019-04-24T15:22:06.755Z,28.12
2019-04-24T15:26:57.178Z,27.94
2019-04-24T15:32:03.544Z,27.64
2019-04-24T15:34:31.413Z,27.50
2019-04-24T15:37:02.868Z,27.36
2019-04-24T15:42:05.775Z,27.19
2019-04-24T15:47:23.890Z,27.09
2019-04-24T15:51:38.813Z,27.08
2019-04-24T15:54:09.304Z,27.02
2019-04-24T15:56:39.255Z,26.94
2019-04-24T15:59:27.191Z,26.76
2019-04-24T16:02:13.090Z,26.62
2019-04-24T16:04:51.981Z,26.51
2019-04-24T16:06:45.463Z,26.37
2019-04-24T16:09:19.908Z,26.28
2019-04-24T16:11:49.742Z,26.15
2019-04-24T16:14:42.076Z,26.04
2019-04-24T16:17:11.293Z,25.90
2019-04-24T16:19:52.287Z,25.78
2019-04-24T16:24:56.875Z,25.62
2019-04-24T16:27:33.518Z,25.61
2019-04-24T16:37:29.613Z,25.44
2019-04-24T16:45:10.096Z,25.42
2019-04-24T16:48:21.795Z,25.36
2019-04-24T16:53:05.612Z,25.31
2019-04-24T16:55:27.858Z,25.31
2019-04-24T16:58:05.762Z,25.33
2019-04-24T17:00:32.831Z,25.41
2019-04-24T17:05:29.880Z,25.46
2019-04-24T17:08:11.039Z,25.33
2019-04-24T17:10:30.314Z,25.22
2019-04-24T17:18:31.422Z,24.75
2019-04-24T17:23:23.854Z,24.51
2019-04-24T17:26:08.221Z,24.38
2019-04-24T17:31:12.526Z,24.25
2019-04-24T17:33:35.441Z,24.06
2019-04-24T17:38:08.050Z,22.94
2019-04-24T17:40:38.881Z,22.25
2019-04-24T17:43:33.691Z,21.77
2019-04-24T17:48:44.015Z,20.82
2019-04-24T17:56:17.982Z,19.58
2019-04-24T18:00:46.618Z,18.50
2019-04-24T18:03:16.509Z,18.05
2019-04-24T18:05:46.332Z,17.62
2019-04-24T18:08:16.259Z,17.41
2019-04-24T18:10:46.112Z,17.31
2019-04-24T18:13:15.901Z,17.23
2019-04-24T18:15:45.609Z,17.23
2019-04-24T18:18:15.522Z,17.06
2019-04-24T18:20:45.279Z,16.76
2019-04-24T18:23:15.512Z,16.78
2019-04-24T18:25:54.124Z,16.70
2019-04-24T18:28:24.712Z,16.67
2019-04-24T18:30:54.594Z,16.45
2019-04-24T18:33:24.680Z,16.28
2019-04-24T18:35:54.587Z,16.32
2019-04-24T18:38:24.389Z,16.38
2019-04-24T18:40:54.365Z,16.48
2019-04-24T18:43:24.154Z,16.48
2019-04-24T18:45:53.836Z,16.65
2019-04-24T18:48:23.626Z,16.55
2019-04-24T18:50:53.408Z,16.48
2019-04-24T18:53:23.209Z,16.44
2019-04-24T18:55:52.983Z,16.40
2019-04-24T18:58:22.720Z,16.46
2019-04-24T19:00:52.571Z,16.64
2019-04-24T19:03:22.335Z,16.64
2019-04-24T19:05:52.236Z,16.56
2019-04-24T19:08:21.977Z,16.57
2019-04-24T19:10:51.767Z,16.52
2019-04-24T19:13:21.935Z,16.49
2019-04-24T19:15:53.263Z,16.42
2019-04-24T19:18:23.338Z,16.29
2019-04-24T19:20:56.281Z,16.33
2019-04-24T19:23:26.023Z,16.38
2019-04-24T19:25:55.758Z,16.22
2019-04-24T19:28:25.536Z,16.13
2019-04-24T19:30:55.713Z,16.15
2019-04-24T19:33:25.355Z,16.13
2019-04-24T19:35:55.263Z,16.03
2019-04-24T19:38:25.093Z,16.01
2019-04-24T19:40:54.776Z,15.97
2019-04-24T19:43:24.444Z,15.82
2019-04-24T19:45:54.232Z,15.74
2019-04-24T19:48:25.473Z,15.73
2019-04-24T19:50:55.561Z,15.68
2019-04-24T19:53:26.456Z,15.57
2019-04-24T19:55:56.446Z,15.64
2019-04-24T19:58:26.215Z,15.62
2019-04-24T20:00:56.040Z,15.65
2019-04-24T20:03:26.061Z,15.69
2019-04-24T20:05:55.686Z,15.66
2019-04-24T20:08:26.560Z,15.65
2019-04-24T20:11:03.770Z,15.60
2019-04-24T20:13:33.478Z,15.61
2019-04-24T20:16:03.113Z,15.74
2019-04-24T20:18:33.227Z,15.64
2019-04-24T20:21:02.947Z,15.55
2019-04-24T20:23:35.202Z,15.48
2019-04-24T20:26:04.401Z,15.49
2019-04-24T20:28:34.071Z,15.49
2019-04-24T20:31:03.892Z,15.46
2019-04-24T20:33:33.615Z,15.45
2019-04-24T20:36:03.436Z,15.41
2019-04-24T20:38:33.241Z,15.36
2019-04-24T20:41:03.323Z,15.29
2019-04-24T20:43:33.020Z,15.31
2019-04-24T20:46:03.043Z,15.35
2019-04-24T20:48:32.769Z,15.27
2019-04-24T20:51:02.545Z,15.16
2019-04-24T20:53:39.800Z,15.16
2019-04-24T20:56:03.619Z,15.20
2019-04-24T20:58:34.855Z,15.26
2019-04-24T21:01:06.797Z,15.15
2019-04-24T21:03:36.411Z,15.09
2019-04-24T21:06:13.649Z,15.22
2019-04-24T21:08:47.457Z,15.07
2019-04-24T21:11:17.262Z,14.96
2019-04-24T21:13:46.932Z,14.97
2019-04-24T21:16:16.746Z,15.02
2019-04-24T21:18:46.452Z,14.85
2019-04-24T21:21:16.763Z,14.82
2019-04-24T21:23:54.459Z,14.70
2019-04-24T21:26:18.486Z,14.69
2019-04-24T21:28:48.120Z,14.65
2019-04-24T21:31:17.749Z,14.62
2019-04-24T21:33:47.506Z,14.62
2019-04-24T21:36:17.262Z,14.61
2019-04-24T21:38:47.086Z,14.57
2019-04-24T21:41:16.744Z,14.49
2019-04-24T21:43:46.625Z,14.43
2019-04-24T21:46:16.390Z,14.37
2019-04-24T21:48:46.357Z,14.35
2019-04-24T21:51:16.035Z,14.36
2019-04-24T21:53:45.846Z,14.33
2019-04-24T21:56:15.622Z,14.40
2019-04-24T21:58:45.437Z,14.37
2019-04-24T22:01:15.815Z,14.44
2019-04-24T22:03:46.208Z,14.44
2019-04-24T22:06:18.629Z,14.47
2019-04-24T22:08:48.625Z,14.52
2019-04-24T22:11:18.716Z,14.50
2019-04-24T22:13:48.997Z,14.44
2019-04-24T22:16:19.188Z,14.31
2019-04-24T22:18:49.080Z,14.26
2019-04-24T22:21:21.005Z,14.26
2019-04-24T22:24:15.941Z,14.20
2019-04-24T22:26:43.332Z,14.16
2019-04-24T22:29:13.111Z,14.22
2019-04-24T22:31:42.801Z,14.19
2019-04-24T22:34:27.022Z,14.20
2019-04-24T22:36:57.066Z,14.24
2019-04-24T22:39:29.445Z,14.13
2019-04-24T22:41:59.277Z,14.12
2019-04-24T22:44:29.706Z,14.08
2019-04-24T22:46:59.708Z,14.07
2019-04-24T22:49:30.376Z,14.06
2019-04-24T22:52:00.902Z,14.05
2019-04-24T22:54:34.140Z,14.08
2019-04-24T22:57:02.659Z,14.05
2019-04-24T22:59:34.386Z,13.94
2019-04-24T23:02:04.533Z,14.00
2019-04-24T23:04:34.823Z,13.92
2019-04-24T23:07:05.136Z,13.90
2019-04-24T23:09:37.642Z,13.82
2019-04-24T23:12:07.889Z,13.79
2019-04-24T23:14:37.807Z,13.75
2019-04-24T23:17:07.920Z,13.69
2019-04-24T23:19:39.558Z,13.68
2019-04-24T23:22:18.967Z,13.67
2019-04-24T23:24:54.740Z,13.71
2019-04-24T23:27:29.120Z,13.63
2019-04-24T23:30:03.394Z,13.66
2019-04-24T23:32:35.066Z,13.63
2019-04-24T23:35:06.498Z,13.66
2019-04-24T23:37:36.458Z,13.68
2019-04-24T23:40:08.595Z,13.61
2019-04-24T23:42:38.488Z,13.57
2019-04-24T23:45:08.533Z,13.55
2019-04-24T23:47:38.903Z,13.46
2019-04-24T23:50:09.239Z,13.38
2019-04-24T23:52:39.608Z,13.36
2019-04-24T23:55:09.516Z,13.39
2019-04-24T23:57:39.945Z,13.31
